Flight Track Log - Related Links

Times and Time Zones

All times are in EDT time to prevent confusion due to time zone crossing. See the N53398 flight status page for this flight to view local times or setup timezone preferences in your user account.

Time Position Orientation Groundspeed Altitude Reporting Facility
EDT Latitude Longitude Course Direction KTS MPH feet Rate Location/Type
Thu 11:32:23 AM 38.5667 -90.1333 354° North 68 78 1,100  Level Gateway (St. Louis) TRACON
Thu 11:34:17 AM 38.6072 -90.1392 354° North 73 84 1,900 409 Climbing Kansas City Center
Thu 11:35:19 AM 38.6186 -90.1639 301° West 82 94 2,300 339 Climbing Kansas City Center
Thu 11:36:21 AM 38.6203 -90.1922 274° West 82 94 2,600 145 Climbing Kansas City Center
Thu 11:37:23 AM 38.6208 -90.2222 271° West 82 94 2,600 -48 Level Kansas City Center
Thu 11:38:25 AM 38.6222 -90.2564 273° West 88 101 2,500  Descending Kansas City Center
Thu 11:39:27 AM 38.6053 -90.2575 183° South 97 112 2,600  Climbing Kansas City Center
Thu 11:40:29 AM 38.6181 -90.2300 59° Northeast 82 94 2,500 -48 Descending Kansas City Center
Thu 11:41:31 AM 38.6381 -90.2344 350° North 85 98 2,500  Level Kansas City Center
Thu 11:42:33 AM 38.6564 -90.2528 322° Northwest 84 97 2,500 -97 Level Kansas City Center
Thu 11:43:35 AM 38.6733 -90.2731 317° Northwest 83 96 2,300 -339 Descending Kansas City Center
Thu 11:44:37 AM 38.6922 -90.2947 318° Northwest 87 100 1,800 -387 Descending Kansas City Center
Thu 11:45:39 AM 38.7153 -90.3250 314° West 94 108 1,500 -242 Descending Kansas City Center
Thu 11:46:41 AM 38.7311 -90.3503 309° West 95 109 1,300 -339 Descending Kansas City Center
Thu 11:47:43 AM 38.7419 -90.3722 302° West 86 99 800 -91 Descending Kansas City Center
Thu 11:49:00 AM 38.7487 -90.3700 153° Southeast  Level Estimated
Thu 11:49:59 AM 38.7625 -90.4161 153° Southeast 65 75 1,000  Level Kansas City Center
Thu 11:51:02 AM 38.7503 -90.4197 193° South 80 92 1,500 240 Climbing Kansas City Center
Thu 11:52:04 AM 38.7369 -90.3942 124° Southeast 82 94 1,500 -242 Level Kansas City Center
Thu 11:53:06 AM 38.7378 -90.3714 87° East 89 102 1,000 -435 Descending Kansas City Center
Thu 11:54:08 AM 38.7528 -90.3897 316° Northwest 77 89 600 -387 Descending Kansas City Center

Login

Don't have an account? Register now (free) for customized features, flight alerts, and more!